createdAt,value
2022-12-01T00:01:20.083Z,22.90
2022-12-01T00:03:48.281Z,23.80
2022-12-01T00:06:21.037Z,22.53
2022-12-01T00:09:13.989Z,24.00
2022-12-01T00:11:43.124Z,23.87
2022-12-01T00:14:10.861Z,22.53
2022-12-01T00:16:40.519Z,24.93
2022-12-01T00:19:08.735Z,21.73
2022-12-01T00:21:36.553Z,24.30
2022-12-01T00:24:06.267Z,23.77
2022-12-01T00:26:34.015Z,26.80
2022-12-01T00:29:01.740Z,23.83
2022-12-01T00:31:29.626Z,24.80
2022-12-01T00:33:57.431Z,25.80
2022-12-01T00:36:25.574Z,24.60
2022-12-01T00:38:54.532Z,26.63
2022-12-01T00:41:24.880Z,24.60
2022-12-01T00:43:53.220Z,27.47
2022-12-01T00:46:22.368Z,27.40
2022-12-01T00:48:50.151Z,24.70
2022-12-01T00:51:17.981Z,24.33
2022-12-01T00:53:45.943Z,25.83
2022-12-01T00:56:13.990Z,24.23
2022-12-01T00:58:43.182Z,26.17
2022-12-01T01:01:14.281Z,25.70
2022-12-01T01:03:42.144Z,25.60
2022-12-01T01:06:12.265Z,26.17
2022-12-01T01:08:40.775Z,24.20
2022-12-01T01:11:09.828Z,25.03
2022-12-01T01:13:38.482Z,22.60
2022-12-01T01:16:11.185Z,26.17
2022-12-01T01:18:39.122Z,25.53
2022-12-01T01:21:09.511Z,23.53
2022-12-01T01:23:38.796Z,22.90
2022-12-01T01:26:08.442Z,24.07
2022-12-01T01:28:37.029Z,23.17
2022-12-01T01:31:08.224Z,22.83
2022-12-01T01:33:36.401Z,24.23
2022-12-01T01:36:05.193Z,23.63
2022-12-01T01:38:33.381Z,24.90
2022-12-01T01:41:01.901Z,24.67
2022-12-01T01:43:47.044Z,24.63
2022-12-01T01:46:18.170Z,24.07
2022-12-01T01:49:12.657Z,24.20
2022-12-01T01:51:44.625Z,23.67
2022-12-01T01:54:15.979Z,22.60
2022-12-01T01:56:45.601Z,24.57
2022-12-01T01:59:16.273Z,24.30
2022-12-01T02:01:46.007Z,25.27
2022-12-01T02:04:16.928Z,24.50
2022-12-01T02:06:44.669Z,24.30
2022-12-01T02:09:13.314Z,23.10
2022-12-01T02:12:11.443Z,24.30
2022-12-01T02:15:05.287Z,24.67
2022-12-01T02:17:43.319Z,22.70
2022-12-01T02:21:00.449Z,24.13
2022-12-01T02:24:09.739Z,23.00
2022-12-01T02:26:47.621Z,22.97
2022-12-01T02:29:48.459Z,25.20
2022-12-01T02:32:22.693Z,25.47
2022-12-01T02:34:58.223Z,23.33
2022-12-01T02:37:32.245Z,23.37
2022-12-01T02:40:07.021Z,22.10
2022-12-01T02:42:50.617Z,28.17
2022-12-01T02:45:24.685Z,28.30
2022-12-01T02:47:57.276Z,26.90
2022-12-01T02:50:27.995Z,30.07
2022-12-01T02:52:56.446Z,27.47
2022-12-01T02:55:24.269Z,24.43
2022-12-01T02:57:52.000Z,26.00
2022-12-01T03:00:20.305Z,26.50
2022-12-01T03:03:08.640Z,27.10
2022-12-01T03:05:46.907Z,28.10
2022-12-01T03:08:35.345Z,27.00
2022-12-01T03:11:04.606Z,29.00
2022-12-01T03:13:39.284Z,27.97
2022-12-01T03:16:13.480Z,26.93
2022-12-01T03:18:44.528Z,28.73
2022-12-01T03:21:20.950Z,29.27
2022-12-01T03:23:51.608Z,26.43
2022-12-01T03:26:23.315Z,26.50
2022-12-01T03:29:04.349Z,25.30
2022-12-01T03:31:37.643Z,26.40
2022-12-01T03:34:11.947Z,27.60
2022-12-01T03:36:45.397Z,25.17
2022-12-01T03:39:18.176Z,27.10
2022-12-01T03:41:54.391Z,26.37
2022-12-01T03:44:26.480Z,27.17
2022-12-01T03:46:58.202Z,25.20
2022-12-01T03:49:26.938Z,23.90
2022-12-01T03:52:03.606Z,26.23
2022-12-01T03:54:45.280Z,24.93
2022-12-01T03:57:16.736Z,25.43
2022-12-01T03:59:46.964Z,24.80
2022-12-01T04:02:15.221Z,26.43
2022-12-01T04:04:43.069Z,25.47
2022-12-01T04:07:13.480Z,26.00
2022-12-01T04:09:42.135Z,25.93
2022-12-01T04:12:33.107Z,25.90
2022-12-01T04:15:02.749Z,26.53
2022-12-01T04:17:31.219Z,26.00
2022-12-01T04:19:59.149Z,26.50
2022-12-01T04:22:28.649Z,23.77
2022-12-01T04:24:56.489Z,23.80
2022-12-01T04:27:24.271Z,25.90
2022-12-01T04:29:52.170Z,26.30
2022-12-01T04:32:20.228Z,24.03
2022-12-01T04:34:49.036Z,23.57
2022-12-01T04:37:17.030Z,23.77
2022-12-01T04:39:46.291Z,23.53
2022-12-01T04:42:14.136Z,25.40
2022-12-01T04:44:41.901Z,24.20
2022-12-01T04:47:09.699Z,24.40
2022-12-01T04:49:37.603Z,28.10
2022-12-01T04:52:05.830Z,25.03
2022-12-01T04:54:33.585Z,26.33
2022-12-01T04:57:02.816Z,23.27
2022-12-01T04:59:30.591Z,24.80
2022-12-01T05:01:58.557Z,26.23
2022-12-01T05:04:26.645Z,22.87
2022-12-01T05:06:55.508Z,24.37
2022-12-01T05:09:23.333Z,25.20
2022-12-01T05:11:51.087Z,24.07
2022-12-01T05:14:20.187Z,23.73
2022-12-01T05:16:51.020Z,23.27
2022-12-01T05:19:36.258Z,23.13
2022-12-01T05:22:04.066Z,23.40
2022-12-01T05:24:31.851Z,23.47
2022-12-01T05:27:00.660Z,24.27
2022-12-01T05:29:29.749Z,20.77
2022-12-01T05:31:58.656Z,24.00
2022-12-01T05:34:26.780Z,20.60
2022-12-01T05:36:54.595Z,22.80
2022-12-01T05:39:22.306Z,23.60
2022-12-01T05:41:50.004Z,23.27
2022-12-01T05:44:17.884Z,24.50
2022-12-01T05:46:47.057Z,23.80
2022-12-01T05:49:15.124Z,22.73
2022-12-01T05:51:44.188Z,22.30
2022-12-01T05:54:11.873Z,22.90
2022-12-01T05:56:39.741Z,22.90
2022-12-01T05:59:09.484Z,24.63
2022-12-01T06:01:37.209Z,23.33
2022-12-01T06:04:06.619Z,24.03
2022-12-01T06:06:34.377Z,25.80
2022-12-01T06:09:02.466Z,24.57
2022-12-01T06:11:30.305Z,21.20
2022-12-01T06:13:58.172Z,23.70
2022-12-01T06:16:25.951Z,25.20
2022-12-01T06:18:57.825Z,25.20
2022-12-01T06:21:26.891Z,24.50
2022-12-01T06:23:54.632Z,22.60
2022-12-01T06:26:22.500Z,22.40
2022-12-01T06:28:50.248Z,25.00
2022-12-01T06:31:18.048Z,22.10
2022-12-01T06:33:45.761Z,22.87
2022-12-01T06:36:13.730Z,23.53
2022-12-01T06:38:42.769Z,23.90
2022-12-01T06:41:10.464Z,21.17
2022-12-01T06:43:38.695Z,22.73
2022-12-01T06:46:06.653Z,22.47
2022-12-01T06:48:34.492Z,22.80
2022-12-01T06:51:02.626Z,23.90
2022-12-01T06:53:31.148Z,21.00
2022-12-01T06:56:02.395Z,21.93
2022-12-01T06:58:30.320Z,20.07
2022-12-01T07:00:58.843Z,21.73
2022-12-01T07:03:27.004Z,22.07
2022-12-01T07:05:59.190Z,22.40
2022-12-01T07:08:27.316Z,22.30
2022-12-01T07:10:59.498Z,22.07
2022-12-01T07:13:33.442Z,20.07
2022-12-01T07:16:03.004Z,22.40
2022-12-01T07:18:31.638Z,23.13
2022-12-01T07:21:01.265Z,23.67
2022-12-01T07:23:29.436Z,22.77
2022-12-01T07:26:01.347Z,23.20
2022-12-01T07:28:30.865Z,25.07
2022-12-01T07:31:03.315Z,22.37
2022-12-01T07:33:31.269Z,25.23
2022-12-01T07:35:59.460Z,23.10
2022-12-01T07:38:28.881Z,23.87
2022-12-01T07:40:56.620Z,21.60
2022-12-01T07:43:24.382Z,22.67
2022-12-01T07:45:53.523Z,23.73
2022-12-01T07:48:21.673Z,21.07
2022-12-01T07:50:49.342Z,23.13
2022-12-01T07:53:17.002Z,23.60
2022-12-01T07:55:49.406Z,23.97
2022-12-01T07:58:17.189Z,24.13
2022-12-01T08:00:44.915Z,23.37
2022-12-01T08:03:14.170Z,23.30
2022-12-01T08:05:41.989Z,23.93
2022-12-01T08:08:09.795Z,21.93
2022-12-01T08:10:37.893Z,22.33
2022-12-01T08:13:05.734Z,22.77
2022-12-01T08:15:33.498Z,20.07
2022-12-01T08:18:03.609Z,22.47
2022-12-01T08:20:32.666Z,21.30
2022-12-01T08:23:01.675Z,21.50
2022-12-01T08:25:29.600Z,22.63
2022-12-01T08:27:57.817Z,22.10
2022-12-01T08:30:25.517Z,21.00
2022-12-01T08:32:55.028Z,20.30
2022-12-01T08:35:22.799Z,19.90
2022-12-01T08:37:54.396Z,21.60
2022-12-01T08:40:23.218Z,19.23
2022-12-01T08:42:53.013Z,22.90
2022-12-01T08:45:22.865Z,20.37
2022-12-01T08:47:50.683Z,21.43
2022-12-01T08:50:18.550Z,20.63
2022-12-01T08:52:46.301Z,21.50
2022-12-01T08:55:15.342Z,19.43
2022-12-01T08:57:43.011Z,19.90
2022-12-01T09:00:12.304Z,19.17
2022-12-01T09:02:40.123Z,19.10
2022-12-01T09:05:08.652Z,18.73
2022-12-01T09:07:36.441Z,18.27
2022-12-01T09:10:04.378Z,18.23
2022-12-01T09:12:33.502Z,20.10
2022-12-01T09:15:01.351Z,17.47
2022-12-01T09:17:29.495Z,18.97
2022-12-01T09:19:57.187Z,16.30
2022-12-01T09:22:24.915Z,16.93
2022-12-01T09:24:52.732Z,18.73
2022-12-01T09:27:20.461Z,18.60
2022-12-01T09:29:49.746Z,16.10
2022-12-01T09:32:17.686Z,17.10
2022-12-01T09:34:45.589Z,17.20
2022-12-01T09:37:13.294Z,16.80
2022-12-01T09:39:40.996Z,16.23
2022-12-01T09:42:13.777Z,16.93
2022-12-01T09:44:46.712Z,16.10
2022-12-01T09:47:22.969Z,14.80
2022-12-01T09:49:56.871Z,15.10
2022-12-01T09:52:27.860Z,16.20
2022-12-01T09:54:56.919Z,14.27
2022-12-01T09:57:31.844Z,14.37
2022-12-01T10:00:02.494Z,13.40
2022-12-01T10:02:44.625Z,15.30
2022-12-01T10:05:16.599Z,14.80
2022-12-01T10:07:48.415Z,15.23
2022-12-01T10:10:21.690Z,13.87
2022-12-01T10:12:49.478Z,14.23
2022-12-01T10:15:28.418Z,14.70
2022-12-01T10:18:17.781Z,14.60
2022-12-01T10:20:49.937Z,14.73
2022-12-01T10:23:37.034Z,14.83
2022-12-01T10:26:14.624Z,15.50
2022-12-01T10:28:54.030Z,15.43
2022-12-01T10:31:27.380Z,12.37
2022-12-01T10:34:08.985Z,15.10
2022-12-01T10:36:36.685Z,15.00
2022-12-01T10:39:07.693Z,14.60
2022-12-01T10:41:38.593Z,16.87
2022-12-01T10:44:08.119Z,16.60
2022-12-01T10:46:42.311Z,16.57
2022-12-01T10:49:13.469Z,16.77
2022-12-01T10:51:50.949Z,14.60
2022-12-01T10:54:19.251Z,16.33
2022-12-01T10:56:49.668Z,16.30
2022-12-01T10:59:26.780Z,15.27
2022-12-01T11:01:55.345Z,16.83
2022-12-01T11:04:36.364Z,16.47
2022-12-01T11:07:05.387Z,15.37
2022-12-01T11:09:33.688Z,15.43
2022-12-01T11:12:03.726Z,15.90
2022-12-01T11:14:42.053Z,16.53
2022-12-01T11:17:28.921Z,16.13
2022-12-01T11:19:58.482Z,17.43
2022-12-01T11:22:30.781Z,16.30
2022-12-01T11:25:01.584Z,15.23
2022-12-01T11:27:32.940Z,17.17
2022-12-01T11:30:04.884Z,15.67
2022-12-01T11:32:35.204Z,18.37
2022-12-01T11:35:08.540Z,15.07
2022-12-01T11:37:50.420Z,16.40
2022-12-01T11:40:30.956Z,16.50
2022-12-01T11:43:01.116Z,16.37
2022-12-01T11:45:32.282Z,16.07
2022-12-01T11:48:04.154Z,14.60
2022-12-01T11:50:35.446Z,18.27
2022-12-01T11:53:04.048Z,17.87
2022-12-01T11:55:32.650Z,16.70
2022-12-01T11:58:02.878Z,16.63
2022-12-01T12:00:39.447Z,16.20
2022-12-01T12:03:19.733Z,15.27
2022-12-01T12:09:20.918Z,15.97
2022-12-01T12:11:58.495Z,16.60
2022-12-01T12:14:46.369Z,16.87
2022-12-01T12:17:27.608Z,16.33
2022-12-01T12:20:12.936Z,16.27
2022-12-01T12:22:55.475Z,17.07
2022-12-01T12:25:35.964Z,16.90
2022-12-01T12:28:25.025Z,16.57
2022-12-01T12:31:04.204Z,18.30
2022-12-01T12:34:00.467Z,17.73
2022-12-01T12:36:41.872Z,16.30
2022-12-01T12:39:31.140Z,16.60
2022-12-01T12:41:59.640Z,15.33
2022-12-01T12:44:44.657Z,14.97
2022-12-01T12:47:29.136Z,14.50
2022-12-01T12:50:10.732Z,15.57
2022-12-01T12:52:42.649Z,15.00
2022-12-01T12:55:19.609Z,15.10
2022-12-01T12:57:53.217Z,15.23
2022-12-01T13:00:23.979Z,17.00
2022-12-01T13:02:55.637Z,17.10
2022-12-01T13:05:28.302Z,15.20
2022-12-01T13:08:00.652Z,15.90
2022-12-01T13:10:38.133Z,17.37
2022-12-01T13:13:18.351Z,15.40
2022-12-01T13:15:48.370Z,16.90
2022-12-01T13:18:26.440Z,15.37
2022-12-01T13:20:58.192Z,16.70
2022-12-01T13:23:27.098Z,16.57
2022-12-01T13:26:00.101Z,15.40
2022-12-01T13:28:30.835Z,17.40
2022-12-01T13:31:01.311Z,16.30
2022-12-01T13:33:29.721Z,17.00
2022-12-01T13:36:29.907Z,16.80
2022-12-01T13:38:57.916Z,16.00
2022-12-01T13:41:30.372Z,16.47
2022-12-01T13:44:01.381Z,15.27
2022-12-01T13:46:32.580Z,17.60
2022-12-01T13:49:01.995Z,16.10
2022-12-01T13:52:08.696Z,16.30
2022-12-01T13:54:37.641Z,15.37
2022-12-01T13:57:13.348Z,15.87
2022-12-01T14:00:05.642Z,15.63
2022-12-01T14:02:42.136Z,15.73
2022-12-01T14:05:44.756Z,16.53
2022-12-01T14:08:22.622Z,14.37
2022-12-01T14:10:57.581Z,16.37
2022-12-01T14:13:28.086Z,15.37
2022-12-01T14:15:58.734Z,17.90
2022-12-01T14:18:35.369Z,15.70
2022-12-01T14:21:06.084Z,16.80
2022-12-01T14:23:36.293Z,16.27
2022-12-01T14:26:16.740Z,15.70
2022-12-01T14:29:21.122Z,14.97
2022-12-01T14:32:23.846Z,15.57
2022-12-01T14:35:02.298Z,14.57
2022-12-01T14:37:54.301Z,15.53
2022-12-01T14:40:31.119Z,14.50
2022-12-01T14:43:17.369Z,16.03
2022-12-01T14:45:57.087Z,15.70
2022-12-01T14:48:33.295Z,15.13
2022-12-01T14:51:17.421Z,15.97
2022-12-01T14:53:47.360Z,17.03
2022-12-01T14:56:19.932Z,14.73
2022-12-01T14:58:56.263Z,14.30
2022-12-01T15:01:25.161Z,15.37
2022-12-01T15:03:58.771Z,15.57
2022-12-01T15:06:29.400Z,14.87
2022-12-01T15:12:02.144Z,17.03
2022-12-01T15:14:35.586Z,16.70
2022-12-01T15:17:05.449Z,15.30
2022-12-01T15:19:37.812Z,15.70
2022-12-01T15:22:13.484Z,15.60
2022-12-01T15:24:41.972Z,15.90
2022-12-01T15:27:25.966Z,15.30
2022-12-01T15:29:54.168Z,16.90
2022-12-01T15:32:24.649Z,17.37
2022-12-01T15:34:56.839Z,26.13
2022-12-01T15:37:31.595Z,16.50
2022-12-01T15:40:43.443Z,15.97
2022-12-01T15:43:02.656Z,16.87
2022-12-01T15:45:30.404Z,22.37
2022-12-01T15:47:59.531Z,19.00
2022-12-01T15:50:31.294Z,17.27
2022-12-01T15:53:00.470Z,16.27
2022-12-01T15:55:31.079Z,15.30
2022-12-01T15:58:00.191Z,15.40
2022-12-01T16:00:28.030Z,13.50
2022-12-01T16:02:58.136Z,15.37
2022-12-01T16:05:28.362Z,14.60
2022-12-01T16:08:13.953Z,14.10
2022-12-01T16:10:42.044Z,15.00
2022-12-01T16:13:44.354Z,16.00
2022-12-01T16:16:28.530Z,15.90
2022-12-01T16:18:57.967Z,16.67
2022-12-01T16:21:26.928Z,16.33
2022-12-01T16:24:04.221Z,15.30
2022-12-01T16:26:34.116Z,16.30
2022-12-01T16:29:01.841Z,14.40
2022-12-01T16:31:29.700Z,14.70
2022-12-01T16:34:09.823Z,15.43
2022-12-01T16:36:47.025Z,14.70
2022-12-01T16:39:16.371Z,14.60
2022-12-01T16:41:46.649Z,14.67
2022-12-01T16:44:28.652Z,14.87
2022-12-01T16:46:56.861Z,16.50
2022-12-01T16:49:24.810Z,15.60
2022-12-01T16:51:57.188Z,14.97
2022-12-01T16:54:28.319Z,16.30
2022-12-01T16:56:56.173Z,15.63
2022-12-01T16:59:24.069Z,16.17
2022-12-01T17:01:51.986Z,17.77
2022-12-01T17:04:20.021Z,16.43
2022-12-01T17:06:48.009Z,16.17
2022-12-01T17:09:16.087Z,17.80
2022-12-01T17:11:45.596Z,16.73
2022-12-01T17:14:13.747Z,15.93
2022-12-01T17:16:41.634Z,17.07
2022-12-01T17:19:09.690Z,15.93
2022-12-01T17:21:37.533Z,15.43
2022-12-01T17:24:06.839Z,14.80
2022-12-01T17:26:34.902Z,16.30
2022-12-01T17:29:04.507Z,15.40
2022-12-01T17:31:32.302Z,17.07
2022-12-01T17:34:00.096Z,14.87
2022-12-01T17:36:27.815Z,14.93
2022-12-01T17:38:56.010Z,16.20
2022-12-01T17:41:25.443Z,16.07
2022-12-01T17:43:53.258Z,16.00
2022-12-01T17:46:23.386Z,18.53
2022-12-01T17:48:51.480Z,17.80
2022-12-01T17:51:19.465Z,20.03
2022-12-01T17:53:47.431Z,18.33
2022-12-01T17:56:17.379Z,18.90
2022-12-01T17:58:45.519Z,18.57
2022-12-01T18:01:17.819Z,19.23
2022-12-01T18:03:47.599Z,18.13
2022-12-01T18:06:16.997Z,19.83
2022-12-01T18:08:44.939Z,18.40
2022-12-01T18:11:18.900Z,18.53
2022-12-01T18:13:48.689Z,18.33
2022-12-01T18:16:19.482Z,18.97
2022-12-01T18:18:49.086Z,18.97
2022-12-01T18:21:19.042Z,17.43
2022-12-01T18:23:50.774Z,18.20
2022-12-01T18:26:19.501Z,17.17
2022-12-01T18:28:47.294Z,16.90
2022-12-01T18:31:17.144Z,17.87
2022-12-01T18:33:46.267Z,18.73
2022-12-01T18:36:17.516Z,18.20
2022-12-01T18:38:46.795Z,19.53
2022-12-01T18:41:15.745Z,19.00
2022-12-01T18:43:43.925Z,18.80
2022-12-01T18:46:13.332Z,16.40
2022-12-01T18:48:45.717Z,20.13
2022-12-01T18:52:19.162Z,20.23
2022-12-01T18:54:48.505Z,18.40
2022-12-01T18:57:28.034Z,19.77
2022-12-01T18:59:55.867Z,19.93
2022-12-01T19:02:23.706Z,20.00
2022-12-01T19:04:51.900Z,19.20
2022-12-01T19:07:22.906Z,19.40
2022-12-01T19:09:54.285Z,18.33
2022-12-01T19:12:22.122Z,19.37
2022-12-01T19:14:52.995Z,18.53
2022-12-01T19:17:21.244Z,18.77
2022-12-01T19:19:49.033Z,17.10
2022-12-01T19:22:18.907Z,18.67
2022-12-01T19:24:52.615Z,19.70
2022-12-01T19:27:23.126Z,19.40
2022-12-01T19:29:52.183Z,21.60
2022-12-01T19:32:20.553Z,19.40
2022-12-01T19:34:48.791Z,19.63
2022-12-01T19:37:16.848Z,20.40
2022-12-01T19:39:44.759Z,19.03
2022-12-01T19:42:12.646Z,18.63
2022-12-01T19:44:41.810Z,17.20
2022-12-01T19:47:10.119Z,16.97
2022-12-01T19:49:37.957Z,17.73
2022-12-01T19:52:06.551Z,16.70
2022-12-01T19:54:35.376Z,17.30
2022-12-01T19:57:03.101Z,17.63
2022-12-01T19:59:30.918Z,15.93
2022-12-01T20:02:00.114Z,18.47
2022-12-01T20:04:27.856Z,18.60
2022-12-01T20:06:55.629Z,17.80
2022-12-01T20:09:23.659Z,17.70
2022-12-01T20:11:51.613Z,15.73
2022-12-01T20:14:19.479Z,18.83
2022-12-01T20:16:47.296Z,17.30
2022-12-01T20:19:16.461Z,19.00
2022-12-01T20:21:44.264Z,18.40
2022-12-01T20:24:14.465Z,17.80
2022-12-01T20:26:44.316Z,16.37
2022-12-01T20:29:15.529Z,18.70
2022-12-01T20:31:44.297Z,17.20
2022-12-01T20:34:14.701Z,18.93
2022-12-01T20:36:44.870Z,17.20
2022-12-01T20:39:13.540Z,17.53
2022-12-01T20:41:41.678Z,17.30
2022-12-01T20:44:12.528Z,18.80
2022-12-01T20:46:41.860Z,16.00
2022-12-01T20:49:10.469Z,17.00
2022-12-01T20:51:38.209Z,15.20
2022-12-01T20:56:58.558Z,16.97
2022-12-01T20:59:26.359Z,18.70
2022-12-01T21:01:54.295Z,17.43
2022-12-01T21:04:22.254Z,17.70
2022-12-01T21:06:56.814Z,17.57
2022-12-01T21:09:26.356Z,19.20
2022-12-01T21:12:40.538Z,19.40
2022-12-01T21:15:18.699Z,18.40
2022-12-01T21:17:52.571Z,18.13
2022-12-01T21:20:27.059Z,16.07
2022-12-01T21:23:03.312Z,18.50
2022-12-01T21:25:33.099Z,17.20
2022-12-01T21:28:11.621Z,17.23
2022-12-01T21:30:47.434Z,19.33
2022-12-01T21:33:27.153Z,18.80
2022-12-01T21:36:27.043Z,17.50
2022-12-01T21:38:58.334Z,17.30
2022-12-01T21:41:29.623Z,18.57
2022-12-01T21:44:03.613Z,18.90
2022-12-01T21:46:31.949Z,17.67
2022-12-01T21:49:01.853Z,18.10
2022-12-01T21:51:30.797Z,17.70
2022-12-01T21:53:59.282Z,18.37
2022-12-01T21:56:31.596Z,17.90
2022-12-01T21:59:05.533Z,18.30
2022-12-01T22:01:35.306Z,18.17
2022-12-01T22:04:30.342Z,18.13
2022-12-01T22:06:58.999Z,18.20
2022-12-01T22:09:30.453Z,20.67
2022-12-01T22:12:02.576Z,20.77
2022-12-01T22:14:33.955Z,19.00
2022-12-01T22:17:17.617Z,20.77
2022-12-01T22:19:56.551Z,19.37
2022-12-01T22:22:26.298Z,22.20
2022-12-01T22:24:57.391Z,19.27
2022-12-01T22:27:36.028Z,18.67
2022-12-01T22:30:16.048Z,19.83
2022-12-01T22:32:57.341Z,20.20
2022-12-01T22:35:32.396Z,18.90
2022-12-01T22:38:27.479Z,19.20
2022-12-01T22:41:56.862Z,18.17
2022-12-01T22:44:27.621Z,19.67
2022-12-01T22:47:00.024Z,18.90
2022-12-01T22:49:27.959Z,20.00
2022-12-01T22:52:01.232Z,20.07
2022-12-01T22:54:33.377Z,21.70
2022-12-01T22:57:12.838Z,22.40
2022-12-01T22:59:43.858Z,20.73
2022-12-01T23:02:21.305Z,18.73
2022-12-01T23:04:51.026Z,21.13
2022-12-01T23:07:32.647Z,20.30
2022-12-01T23:10:13.375Z,20.03
2022-12-01T23:12:41.660Z,22.33
2022-12-01T23:15:36.231Z,21.67
2022-12-01T23:18:12.698Z,20.80
2022-12-01T23:20:41.946Z,20.83
2022-12-01T23:23:14.438Z,21.10
2022-12-01T23:25:43.469Z,20.73
2022-12-01T23:28:12.892Z,22.57
2022-12-01T23:30:43.707Z,20.37
2022-12-01T23:33:17.077Z,21.40
2022-12-01T23:35:48.016Z,22.43
2022-12-01T23:38:21.990Z,23.07
2022-12-01T23:40:50.722Z,24.40
2022-12-01T23:43:21.569Z,21.67
2022-12-01T23:45:56.573Z,21.77
2022-12-01T23:48:29.218Z,19.27
2022-12-01T23:50:57.005Z,22.30
2022-12-01T23:53:30.425Z,21.83
2022-12-01T23:56:02.898Z,21.60
2022-12-01T23:58:30.708Z,22.50
